Time;durP1;ratioP1;P1;durP2;ratioP2;P2;SDS_P1;SDS_P2;PMS_P1;PMS_P2;Temp;Humidity;BMP_temperature;BMP_pressure;BME280_temperature;BME280_humidity;BME280_pressure;Samples;Min_cycle;Max_cycle;Signal;HPM_P1;HPM_P2
2022/04/03 00:01:14;;;;;;;1.23;1.13;;;;;;;18.92;33.03;102150.56;5115447;28;20034;-64
2022/04/03 00:03:41;;;;;;;1.02;0.93;;;;;;;18.92;33.04;102155.22;5115417;28;20088;-64
2022/04/03 00:06:06;;;;;;;0.90;0.90;;;;;;;18.93;33.14;102156.91;5115491;28;20067;-64
2022/04/03 00:08:32;;;;;;;0.95;0.93;;;;;;;18.90;33.09;102155.47;5115725;28;20428;-64
2022/04/03 00:10:57;;;;;;;0.95;0.90;;;;;;;18.90;33.10;102152.72;5115214;28;20036;-64
2022/04/03 00:13:23;;;;;;;1.08;0.95;;;;;;;18.91;32.93;102159.03;5093473;28;20048;-64
2022/04/03 00:15:48;;;;;;;1.05;1.00;;;;;;;18.89;32.94;102151.03;5094846;28;20036;-64
2022/04/03 00:18:15;;;;;;;0.98;0.98;;;;;;;18.88;32.87;102145.78;5092369;28;20035;-64
2022/04/03 00:20:41;;;;;;;1.35;1.23;;;;;;;18.87;32.81;102147.69;5094666;28;20024;-63
2022/04/03 00:23:07;;;;;;;1.08;1.00;;;;;;;18.88;32.94;102149.38;5093644;28;20020;-64
2022/04/03 00:25:33;;;;;;;1.08;0.98;;;;;;;18.88;33.00;102149.38;5094654;28;20023;-64
2022/04/03 00:27:58;;;;;;;1.20;1.10;;;;;;;18.87;32.73;102147.69;5094605;28;20473;-63
2022/04/03 00:30:24;;;;;;;2.45;1.10;;;;;;;18.87;32.99;102144.13;5094259;28;20384;-64
2022/04/03 00:32:49;;;;;;;1.80;1.02;;;;;;;18.87;32.93;102149.63;5094418;28;20063;-64
2022/04/03 00:35:16;;;;;;;1.48;1.10;;;;;;;18.85;32.78;102151.72;5094294;28;20040;-63
2022/04/03 00:37:44;;;;;;;1.23;1.13;;;;;;;18.86;33.09;102153.44;5094429;28;20036;-63
2022/04/03 00:40:10;;;;;;;2.20;1.20;;;;;;;18.85;32.88;102149.84;5094355;28;20036;-64
2022/04/03 00:42:37;;;;;;;1.23;1.13;;;;;;;18.83;32.86;102149.22;5093151;28;20490;-63
2022/04/03 00:45:06;;;;;;;1.20;1.10;;;;;;;18.84;32.83;102150.03;5094453;28;20080;-64
2022/04/03 00:47:32;;;;;;;1.23;0.95;;;;;;;18.83;32.84;102153.88;5094092;28;20039;-64
2022/04/03 00:49:59;;;;;;;1.30;1.20;;;;;;;18.83;32.75;102145.63;5093501;28;20032;-64
2022/04/03 00:52:24;;;;;;;1.20;1.10;;;;;;;18.81;32.64;102148.63;5094169;28;20455;-64
2022/04/03 00:54:51;;;;;;;1.30;1.20;;;;;;;18.82;32.83;102146.72;5094239;28;20111;-63
2022/04/03 00:57:18;;;;;;;1.77;1.20;;;;;;;18.82;32.64;102146.72;5093008;28;20035;-64
2022/04/03 00:59:43;;;;;;;1.10;0.95;;;;;;;18.81;32.80;102150.53;5094125;28;20032;-64
2022/04/03 01:02:09;;;;;;;1.17;1.10;;;;;;;18.81;32.63;102145.88;5092597;28;20036;-64
2022/04/03 01:04:38;;;;;;;1.15;1.10;;;;;;;18.81;32.71;102145.03;5094897;28;20107;-64
2022/04/03 01:07:04;;;;;;;1.30;1.20;;;;;;;18.80;32.64;102155.19;5094066;28;20027;-63
2022/04/03 01:09:30;;;;;;;1.27;1.17;;;;;;;18.80;32.75;102149.69;5092744;28;20115;-63
2022/04/03 01:11:56;;;;;;;1.20;1.02;;;;;;;18.79;32.74;102144.44;5093827;28;20028;-63
2022/04/03 01:14:37;;;;;;;1.27;1.10;;;;;;;18.80;32.90;102143.38;5111581;28;20051;-63
2022/04/03 01:17:04;;;;;;;1.17;1.08;;;;;;;18.79;32.68;102141.69;5114259;28;20066;-63
2022/04/03 01:19:29;;;;;;;2.15;0.95;;;;;;;18.79;32.70;102141.69;5095540;28;20353;-63
2022/04/03 01:21:56;;;;;;;1.05;1.00;;;;;;;18.78;32.64;102149.13;5114202;28;20035;-63
2022/04/03 01:24:23;;;;;;;1.73;1.10;;;;;;;18.76;32.60;102143.84;5114270;28;20035;-63
2022/04/03 01:26:49;;;;;;;0.75;0.75;;;;;;;18.76;32.76;102145.75;5114183;28;20105;-64
2022/04/03 01:29:17;;;;;;;1.55;1.45;;;;;;;18.76;32.65;102135.59;5117041;28;20066;-64
2022/04/03 01:31:44;;;;;;;1.27;1.10;;;;;;;18.75;32.64;102144.91;5118211;28;20177;-64
2022/04/03 01:34:10;;;;;;;1.13;1.02;;;;;;;18.74;32.68;102140.50;5118334;28;20513;-63
2022/04/03 01:36:35;;;;;;;1.10;1.00;;;;;;;18.75;32.60;102139.44;5118028;28;20028;-63
2022/04/03 01:39:01;;;;;;;1.20;1.10;;;;;;;18.75;32.59;102144.09;5118281;28;20024;-64
2022/04/03 01:41:27;;;;;;;1.10;1.00;;;;;;;18.72;32.58;102133.53;5118385;28;20034;-63
2022/04/03 01:43:52;;;;;;;1.92;1.50;;;;;;;18.73;32.67;102140.72;5118141;28;20082;-64
2022/04/03 01:46:18;;;;;;;1.15;1.15;;;;;;;18.73;32.60;102137.97;5099968;28;20051;-64
2022/04/03 01:48:43;;;;;;;2.72;1.40;;;;;;;18.71;32.52;102134.66;5117697;28;20059;-63
2022/04/03 01:51:09;;;;;;;1.08;1.00;;;;;;;18.71;32.74;102131.91;5118033;28;20031;-63
2022/04/03 01:53:34;;;;;;;1.50;1.30;;;;;;;18.70;32.65;102133.78;5118212;28;20103;-64
2022/04/03 01:56:05;;;;;;;1.27;1.17;;;;;;;18.70;32.65;102133.78;5117903;28;20487;-64
2022/04/03 01:58:32;;;;;;;1.35;1.25;;;;;;;18.69;32.48;102132.13;5112123;28;20042;-63
2022/04/03 02:00:58;;;;;;;1.75;1.40;;;;;;;18.71;32.73;102131.91;5117913;28;20061;-63
2022/04/03 02:03:24;;;;;;;1.17;1.08;;;;;;;18.69;32.60;102137.63;5117664;28;20035;-64
2022/04/03 02:05:50;;;;;;;1.40;1.30;;;;;;;18.68;32.46;102132.38;5117806;28;20521;-63
2022/04/03 02:08:15;;;;;;;1.63;1.30;;;;;;;18.69;32.59;102128.53;5117680;28;20023;-63
2022/04/03 02:10:42;;;;;;;1.48;1.20;;;;;;;18.67;32.47;102123.28;5117264;28;20484;-64
2022/04/03 02:13:07;;;;;;;1.58;1.38;;;;;;;18.68;32.49;102127.72;5117311;28;20484;-63
2022/04/03 02:15:33;;;;;;;1.30;1.23;;;;;;;18.67;32.61;102126.03;5117474;28;20074;-63
2022/04/03 02:17:58;;;;;;;2.78;1.65;;;;;;;18.66;32.47;102126.25;5116728;28;20031;-63
2022/04/03 02:20:24;;;;;;;1.88;1.30;;;;;;;18.66;32.61;102118.03;5117439;28;20057;-63
2022/04/03 02:22:49;;;;;;;1.10;1.10;;;;;;;18.66;32.50;102118.88;5117954;28;20032;-63
2022/04/03 02:25:14;;;;;;;1.20;1.10;;;;;;;18.65;32.55;102119.13;5099140;28;20066;-63
2022/04/03 02:27:44;;;;;;;1.45;1.35;;;;;;;18.64;32.58;102122.94;5081828;28;20031;-63
2022/04/03 02:30:09;;;;;;;1.20;1.10;;;;;;;18.64;32.68;102126.50;5117597;28;20032;-63
2022/04/03 02:32:37;;;;;;;1.20;1.20;;;;;;;18.64;32.67;102122.94;5116864;28;20447;-64
2022/04/03 02:35:03;;;;;;;1.38;1.27;;;;;;;18.63;32.69;102115.75;5117122;28;20115;-63
2022/04/03 02:37:29;;;;;;;1.27;1.15;;;;;;;18.63;32.43;102118.50;5099151;28;20039;-63
2022/04/03 02:39:54;;;;;;;1.38;1.20;;;;;;;18.62;32.39;102119.59;5116032;28;20031;-63
2022/04/03 02:42:20;;;;;;;1.33;1.23;;;;;;;18.62;32.55;102117.66;5116782;28;20079;-63
2022/04/03 02:44:45;;;;;;;1.13;1.13;;;;;;;18.62;32.38;102127.84;5117001;28;20028;-63
2022/04/03 02:47:11;;;;;;;1.30;1.20;;;;;;;18.62;32.38;102116.84;5116655;28;20111;-63
2022/04/03 02:49:36;;;;;;;1.65;1.55;;;;;;;18.61;32.49;102110.50;5116504;28;20034;-63
2022/04/03 02:52:03;;;;;;;1.20;1.10;;;;;;;18.61;32.57;102118.75;5117053;28;20044;-64
2022/04/03 02:54:29;;;;;;;1.17;1.08;;;;;;;18.58;32.65;102128.28;5116755;28;20116;-64
2022/04/03 02:56:54;;;;;;;1.25;1.15;;;;;;;18.58;32.45;102122.78;5116515;28;20071;-63
2022/04/03 02:59:20;;;;;;;1.60;1.25;;;;;;;18.58;32.25;102125.53;5116706;28;20051;-64
2022/04/03 03:01:47;;;;;;;1.40;1.30;;;;;;;18.59;32.43;102129.16;5098465;28;20411;-63
2022/04/03 03:04:12;;;;;;;1.20;1.10;;;;;;;18.58;32.41;102122.78;5098880;28;20436;-64
2022/04/03 03:06:38;;;;;;;1.40;1.30;;;;;;;18.58;32.37;102127.47;5098520;28;20149;-63
2022/04/03 03:09:03;;;;;;;1.20;1.10;;;;;;;18.57;32.42;102132.13;5098427;28;20383;-63
2022/04/03 03:11:29;;;;;;;1.42;1.33;;;;;;;18.57;32.44;102131.28;5116490;28;20409;-64
2022/04/03 03:13:55;;;;;;;1.65;1.42;;;;;;;18.57;32.40;102131.28;5098043;28;20112;-63
2022/04/03 03:16:20;;;;;;;1.38;1.27;;;;;;;18.57;32.45;102132.13;5116018;28;20089;-64
2022/04/03 03:18:45;;;;;;;1.33;1.23;;;;;;;18.56;32.51;102135.13;5097636;28;20043;-64
2022/04/03 03:21:11;;;;;;;1.95;1.40;;;;;;;18.55;32.44;102131.50;5116302;28;20043;-64
2022/04/03 03:23:36;;;;;;;1.48;1.30;;;;;;;18.55;32.47;102137.00;5097976;28;20039;-64
2022/04/03 03:26:02;;;;;;;1.23;1.20;;;;;;;18.54;32.34;102129.88;5081071;28;20398;-63
2022/04/03 03:28:27;;;;;;;1.05;1.05;;;;;;;18.54;32.45;102132.63;5115833;28;20394;-63
2022/04/03 03:30:52;;;;;;;1.25;1.15;;;;;;;18.53;32.42;102136.44;5064572;28;20085;-64
2022/04/03 03:33:18;;;;;;;1.33;1.25;;;;;;;18.54;32.42;102137.25;5115990;28;20051;-63
2022/04/03 03:35:43;;;;;;;1.50;1.40;;;;;;;18.53;32.26;102141.09;5097677;28;20032;-64
2022/04/03 03:38:10;;;;;;;1.75;1.27;;;;;;;18.52;32.49;102142.97;5080863;28;20032;-64
2022/04/03 03:40:38;;;;;;;1.27;1.27;;;;;;;18.52;32.29;102137.50;5116266;28;20368;-64
2022/04/03 03:43:04;;;;;;;1.60;1.50;;;;;;;18.51;32.48;102135.84;5115822;28;20114;-63
2022/04/03 03:45:30;;;;;;;1.58;1.30;;;;;;;18.52;32.51;102139.41;5115776;28;20070;-64
2022/04/03 03:47:57;;;;;;;1.48;1.38;;;;;;;18.50;32.41;102145.16;5115276;28;20031;-63
2022/04/03 03:50:23;;;;;;;1.95;1.50;;;;;;;18.51;32.47;102144.09;5115315;28;20472;-63
2022/04/03 03:52:49;;;;;;;1.77;1.40;;;;;;;18.50;32.57;102138.78;5114605;28;20031;-63
2022/04/03 03:55:15;;;;;;;1.30;1.20;;;;;;;18.49;32.32;102135.22;5115534;28;20027;-64
2022/04/03 03:57:44;;;;;;;1.60;1.23;;;;;;;18.49;32.36;102137.16;5115552;28;20164;-64
2022/04/03 04:00:10;;;;;;;1.35;1.27;;;;;;;18.48;32.64;102133.53;5115809;28;20032;-64
2022/04/03 04:02:36;;;;;;;1.60;1.50;;;;;;;18.48;32.30;102144.53;5115380;28;20027;-63
2022/04/03 04:05:01;;;;;;;2.20;1.48;;;;;;;18.48;32.45;102138.22;5115207;28;20058;-63
2022/04/03 04:07:37;;;;;;;1.48;1.38;;;;;;;18.49;32.56;102143.47;5115592;28;20032;-63
2022/04/03 04:10:06;;;;;;;1.85;1.48;;;;;;;18.47;32.46;102139.28;5115543;28;20030;-63
2022/04/03 04:12:31;;;;;;;1.42;1.33;;;;;;;18.48;32.39;102146.44;5115075;28;20032;-63
2022/04/03 04:14:57;;;;;;;1.40;1.30;;;;;;;18.47;32.29;102142.88;5115793;28;20031;-63
2022/04/03 04:17:23;;;;;;;1.42;1.33;;;;;;;18.47;32.50;102139.28;5097386;28;20054;-64
2022/04/03 04:19:49;;;;;;;1.27;1.23;;;;;;;18.45;32.46;102134.00;5114572;28;20107;-64
2022/04/03 04:22:14;;;;;;;1.40;1.30;;;;;;;18.46;32.31;102143.94;5115076;28;20449;-63
2022/04/03 04:24:40;;;;;;;1.45;1.35;;;;;;;18.45;32.39;102139.50;5096792;28;20098;-63
2022/04/03 04:27:05;;;;;;;1.50;1.40;;;;;;;18.44;32.38;102140.59;5114967;28;20119;-63
2022/04/03 04:29:31;;;;;;;1.60;1.27;;;;;;;18.46;32.40;102146.69;5114878;28;20061;-64
2022/04/03 04:31:56;;;;;;;1.40;1.30;;;;;;;18.44;32.33;102145.25;5114838;28;20487;-63
2022/04/03 04:34:21;;;;;;;1.33;1.23;;;;;;;18.44;32.05;102142.50;5114943;28;20111;-63
2022/04/03 04:36:47;;;;;;;1.45;1.35;;;;;;;18.43;32.39;102149.91;5114822;28;20023;-63
2022/04/03 04:39:12;;;;;;;1.45;1.35;;;;;;;18.41;32.37;102152.06;5115186;28;20032;-64
2022/04/03 04:41:38;;;;;;;1.40;1.30;;;;;;;18.41;32.27;102157.56;5114723;28;20035;-64
2022/04/03 04:44:03;;;;;;;1.45;1.35;;;;;;;18.42;32.51;102156.47;5114844;28;20383;-64
2022/04/03 04:46:29;;;;;;;1.83;1.40;;;;;;;18.41;32.33;102161.16;5096370;28;20027;-64
2022/04/03 04:48:54;;;;;;;1.50;1.40;;;;;;;18.40;32.27;102153.97;5113807;28;20111;-63
2022/04/03 04:51:19;;;;;;;1.30;1.20;;;;;;;18.38;32.36;102153.38;5096656;28;20023;-63
2022/04/03 04:53:45;;;;;;;1.02;1.02;;;;;;;18.39;32.33;102152.31;5114721;28;20424;-63
2022/04/03 04:56:12;;;;;;;1.48;1.38;;;;;;;18.38;32.20;102150.63;5114298;28;20024;-63
2022/04/03 04:58:37;;;;;;;1.88;1.58;;;;;;;18.40;32.35;102158.63;5114451;28;20083;-63
2022/04/03 05:01:03;;;;;;;2.10;1.52;;;;;;;18.38;32.23;102163.50;5114316;28;20032;-63
2022/04/03 05:03:28;;;;;;;1.20;1.20;;;;;;;18.38;32.33;102167.13;5114068;28;20036;-64
2022/04/03 05:05:55;;;;;;;1.55;1.45;;;;;;;18.37;32.28;102172.84;5114153;28;20032;-63
2022/04/03 05:08:20;;;;;;;1.50;1.40;;;;;;;18.38;32.07;102180.84;5114554;28;20027;-63
2022/04/03 05:10:46;;;;;;;1.48;1.38;;;;;;;18.37;32.23;102179.16;5114115;28;20486;-63
2022/04/03 05:13:11;;;;;;;1.40;1.30;;;;;;;18.37;32.26;102173.66;5113913;28;20415;-63
2022/04/03 05:15:38;;;;;;;1.63;1.52;;;;;;;18.35;32.25;102175.81;5095968;28;20097;-63
2022/04/03 05:18:04;;;;;;;2.22;1.48;;;;;;;18.36;32.33;102176.66;5113503;28;20035;-63
2022/04/03 05:20:30;;;;;;;1.42;1.30;;;;;;;18.36;32.26;102179.41;5114207;28;20130;-63
2022/04/03 05:22:55;;;;;;;1.67;1.58;;;;;;;18.36;32.40;102184.91;5114185;28;20032;-63
2022/04/03 05:25:21;;;;;;;1.50;1.40;;;;;;;18.36;32.24;102187.66;5114244;28;20089;-64
2022/04/03 05:27:46;;;;;;;1.50;1.40;;;;;;;18.35;32.14;102184.06;5114691;28;20031;-63
2022/04/03 05:30:13;;;;;;;1.83;1.40;;;;;;;18.36;32.07;102184.91;5114420;28;20042;-63
2022/04/03 05:32:38;;;;;;;1.70;1.60;;;;;;;18.36;32.09;102190.38;5113946;28;20060;-64
2022/04/03 05:35:06;;;;;;;2.55;1.50;;;;;;;18.36;32.13;102184.91;5095986;28;20023;-64
2022/04/03 05:37:31;;;;;;;1.83;1.50;;;;;;;18.34;32.40;102190.63;5096103;28;20035;-64
2022/04/03 05:39:57;;;;;;;1.55;1.45;;;;;;;18.35;32.20;102200.56;5096043;28;20532;-64
2022/04/03 05:42:23;;;;;;;3.38;1.42;;;;;;;18.31;31.85;102199.34;5113707;28;20377;-64
2022/04/03 05:44:48;;;;;;;2.63;2.33;;;;;;;17.88;27.37;102200.34;5113753;28;20036;-65
2022/04/03 05:47:16;;;;;;;3.25;2.53;;;;;;;17.22;26.49;102197.31;5113974;28;20106;-65
2022/04/03 05:49:42;;;;;;;3.80;2.70;;;;;;;16.59;26.84;102201.84;5113509;28;20077;-65
2022/04/03 05:52:07;;;;;;;4.10;2.70;;;;;;;16.25;27.70;102212.22;5113524;28;20059;-66
2022/04/03 05:54:33;;;;;;;4.30;2.78;;;;;;;16.28;28.65;102211.81;5113936;28;20043;-66
2022/04/03 05:56:59;;;;;;;3.03;2.50;;;;;;;16.49;29.52;102205.13;5095632;28;20038;-66
2022/04/03 05:59:24;;;;;;;6.28;3.03;;;;;;;16.77;30.81;102208.47;5113719;28;20444;-65
2022/04/03 06:01:50;;;;;;;5.72;2.70;;;;;;;17.06;32.21;102204.22;5095325;28;20036;-65
2022/04/03 06:04:16;;;;;;;3.55;2.53;;;;;;;17.31;30.33;102204.19;5114010;28;20118;-66
2022/04/03 06:06:41;;;;;;;2.90;2.33;;;;;;;17.58;31.08;102211.28;5095560;28;20028;-66
2022/04/03 06:09:07;;;;;;;4.10;2.40;;;;;;;17.81;30.63;102202.34;5113741;28;20455;-66
2022/04/03 06:11:32;;;;;;;2.63;2.30;;;;;;;18.00;30.70;102209.50;5113735;28;20353;-65
2022/04/03 06:13:58;;;;;;;3.53;2.47;;;;;;;18.17;30.50;102204.22;5112731;28;20062;-65
2022/04/03 06:16:23;;;;;;;3.65;2.17;;;;;;;18.31;29.83;102215.81;5098398;28;20028;-66
2022/04/03 06:18:48;;;;;;;3.13;2.10;;;;;;;18.42;30.36;102205.94;5098956;28;20531;-65
2022/04/03 06:21:14;;;;;;;2.20;2.00;;;;;;;18.57;30.48;102213.72;5117160;28;20475;-66
2022/04/03 06:23:39;;;;;;;3.47;2.00;;;;;;;18.68;30.39;102221.16;5117677;28;20593;-66
2022/04/03 06:26:05;;;;;;;2.47;1.90;;;;;;;18.78;30.08;102217.84;5099193;28;20031;-66
2022/04/03 06:28:30;;;;;;;2.67;2.00;;;;;;;18.83;30.48;102217.97;5082212;28;20028;-66
2022/04/03 06:30:56;;;;;;;5.53;2.20;;;;;;;18.93;30.30;102217.41;5117332;28;20111;-66
2022/04/03 06:33:22;;;;;;;3.30;2.10;;;;;;;19.04;30.64;102218.47;5117097;28;20062;-66
2022/04/03 06:35:48;;;;;;;2.67;1.90;;;;;;;19.10;31.12;102209.25;5117164;28;20467;-66
2022/04/03 06:38:14;;;;;;;2.35;2.15;;;;;;;19.17;31.10;102209.16;5099034;28;20450;-66
2022/04/03 06:40:48;;;;;;;2.58;1.50;;;;;;;19.21;30.98;102213.94;5117112;28;20031;-66
2022/04/03 06:43:19;;;;;;;1.80;1.63;;;;;;;19.26;30.71;102211.28;5116546;28;20023;-66
2022/04/03 06:45:44;;;;;;;2.40;1.98;;;;;;;19.35;30.84;102208.19;5082457;28;20153;-66
2022/04/03 06:48:10;;;;;;;2.17;1.77;;;;;;;19.41;30.68;102207.19;5116249;28;20442;-66
2022/04/03 06:50:35;;;;;;;1.92;1.58;;;;;;;19.44;30.83;102204.81;5116640;28;20495;-66
2022/04/03 06:53:01;;;;;;;1.60;1.50;;;;;;;19.49;30.32;102214.25;5098525;28;20465;-66
2022/04/03 06:55:26;;;;;;;1.83;1.73;;;;;;;19.52;30.58;102209.09;5116790;28;20451;-66
2022/04/03 06:57:51;;;;;;;1.98;1.70;;;;;;;19.58;30.65;102210.06;5116463;28;20460;-66
2022/04/03 07:00:17;;;;;;;2.58;1.80;;;;;;;19.62;30.61;102208.47;5098718;28;20524;-66
2022/04/03 07:02:43;;;;;;;2.40;1.92;;;;;;;19.65;30.42;102210.75;5098432;28;20067;-66
2022/04/03 07:05:09;;;;;;;2.03;1.85;;;;;;;19.67;30.81;102219.59;5116583;28;20027;-66
2022/04/03 07:07:35;;;;;;;2.28;1.80;;;;;;;19.70;30.54;102215.53;5116815;28;20055;-66
2022/04/03 07:10:00;;;;;;;2.08;1.90;;;;;;;19.74;30.68;102219.47;5116535;28;20055;-66
2022/04/03 07:12:26;;;;;;;1.88;1.70;;;;;;;19.79;30.66;102222.34;5116137;28;20115;-66
2022/04/03 07:14:51;;;;;;;3.33;1.70;;;;;;;19.82;30.87;102218.28;5116542;28;20098;-65
2022/04/03 07:17:17;;;;;;;1.63;1.52;;;;;;;19.82;30.47;102218.28;5098236;28;20504;-65
2022/04/03 07:19:43;;;;;;;1.70;1.60;;;;;;;19.84;31.25;102222.44;5115920;28;20028;-66
2022/04/03 07:22:08;;;;;;;1.95;1.55;;;;;;;19.86;31.30;102217.53;5116029;28;20035;-66
2022/04/03 07:24:34;;;;;;;1.90;1.65;;;;;;;19.90;31.47;102224.25;5098036;28;20032;-66
2022/04/03 07:26:59;;;;;;;1.60;1.50;;;;;;;19.93;31.55;102220.13;5116050;28;20031;-66
2022/04/03 07:29:25;;;;;;;2.03;1.77;;;;;;;19.92;31.52;102216.56;5097816;28;20161;-66
2022/04/03 07:31:51;;;;;;;2.00;1.80;;;;;;;19.94;31.85;102221.81;5115964;28;20031;-66
2022/04/03 07:34:17;;;;;;;1.63;1.52;;;;;;;19.95;31.42;102226.25;5116607;28;20040;-66
2022/04/03 07:36:42;;;;;;;2.33;1.52;;;;;;;19.99;31.19;102227.44;5115748;28;20039;-66
2022/04/03 07:39:10;;;;;;;2.25;1.70;;;;;;;20.00;32.19;102231.84;5098121;28;20357;-65
2022/04/03 07:41:39;;;;;;;3.53;1.80;;;;;;;20.02;32.10;102229.72;5115906;28;20360;-66
2022/04/03 07:44:08;;;;;;;1.70;1.60;;;;;;;20.03;31.57;102233.28;5115606;28;20042;-66
2022/04/03 07:46:35;;;;;;;2.15;1.55;;;;;;;20.05;32.06;102234.72;5097529;28;20061;-66
2022/04/03 07:49:00;;;;;;;1.70;1.60;;;;;;;20.08;31.74;102231.47;5114987;28;20032;-66
2022/04/03 07:51:27;;;;;;;1.83;1.50;;;;;;;20.12;32.21;102231.81;5115526;28;20049;-66
2022/04/03 07:53:53;;;;;;;1.77;1.60;;;;;;;20.13;31.54;102230.72;5115548;28;20379;-66
2022/04/03 07:56:19;;;;;;;1.88;1.60;;;;;;;20.13;31.38;102234.31;5097338;28;20039;-65
2022/04/03 07:58:44;;;;;;;1.75;1.42;;;;;;;20.15;31.71;102226.66;5115652;27;20031;-65
2022/04/03 08:01:09;;;;;;;3.38;1.60;;;;;;;20.19;31.63;102239.94;5115477;28;20143;-65
2022/04/03 08:03:35;;;;;;;4.72;1.70;;;;;;;20.22;31.83;102233.94;5096890;28;20418;-64
2022/04/03 08:06:00;;;;;;;1.65;1.40;;;;;;;20.22;31.47;102233.94;5115362;28;20031;-65
2022/04/03 08:08:26;;;;;;;1.70;1.60;;;;;;;20.21;31.54;102235.00;5097142;28;20047;-65
2022/04/03 08:10:51;;;;;;;1.70;1.60;;;;;;;20.25;31.68;102236.19;5115351;28;20408;-65
2022/04/03 08:13:17;;;;;;;1.65;1.52;;;;;;;20.26;31.67;102241.44;5115206;28;20047;-65
2022/04/03 08:15:43;;;;;;;2.00;1.40;;;;;;;20.28;32.00;102238.44;5115190;28;20036;-65
2022/04/03 08:18:08;;;;;;;1.73;1.60;;;;;;;20.27;31.87;102231.25;5115143;28;20035;-65
2022/04/03 08:20:35;;;;;;;2.72;1.77;;;;;;;20.28;31.59;102243.97;5080115;28;20463;-66
2022/04/03 08:23:03;;;;;;;1.73;1.63;;;;;;;20.28;31.26;102242.03;5114685;28;20110;-65
2022/04/03 08:25:29;;;;;;;1.90;1.50;;;;;;;20.29;31.50;102240.94;5080922;28;20055;-65
2022/04/03 08:27:56;;;;;;;1.83;1.65;;;;;;;20.29;31.77;102245.63;5115028;28;20106;-65
2022/04/03 08:30:31;;;;;;;1.77;1.45;;;;;;;20.26;31.29;102243.38;5115334;28;20076;-65
2022/04/03 08:32:58;;;;;;;2.50;1.45;;;;;;;20.21;31.12;102249.63;5114729;28;20428;-65
2022/04/03 08:35:26;;;;;;;1.40;1.30;;;;;;;20.15;30.47;102248.69;5114906;28;20052;-65
2022/04/03 08:37:52;;;;;;;1.95;1.35;;;;;;;20.10;30.95;102243.06;5114149;28;20526;-65
2022/04/03 08:40:20;;;;;;;2.30;1.30;;;;;;;20.05;30.93;102243.00;5114809;28;20032;-65
2022/04/03 08:42:46;;;;;;;1.40;1.23;;;;;;;19.98;31.36;102236.78;5102356;28;20035;-65
2022/04/03 08:45:12;;;;;;;1.83;1.40;;;;;;;19.94;31.32;102238.34;5075930;28;20383;-65
2022/04/03 08:47:45;;;;;;;1.38;1.27;;;;;;;19.90;31.40;102246.28;5076297;28;20036;-65
2022/04/03 08:50:14;;;;;;;1.40;1.30;;;;;;;19.86;31.29;102252.53;5093881;28;20120;-65
2022/04/03 08:52:45;;;;;;;1.35;1.20;;;;;;;19.81;31.40;102247.72;5076027;28;20375;-65
2022/04/03 08:55:10;;;;;;;2.13;1.17;;;;;;;19.77;31.27;102252.03;5094289;28;20032;-66
2022/04/03 08:57:36;;;;;;;1.52;1.42;;;;;;;19.72;31.28;102246.41;5076153;28;20028;-65
2022/04/03 09:00:03;;;;;;;1.98;1.35;;;;;;;19.68;31.04;102250.72;5076152;28;20368;-65
2022/04/03 09:02:28;;;;;;;1.70;1.33;;;;;;;19.64;31.08;102239.38;5094013;28;20046;-65
2022/04/03 09:04:54;;;;;;;1.70;1.20;;;;;;;19.60;31.14;102239.00;5094002;28;20064;-65
2022/04/03 09:07:19;;;;;;;3.35;1.60;;;;;;;19.58;31.34;102245.84;5094046;28;20052;-65
2022/04/03 09:09:55;;;;;;;1.92;1.30;;;;;;;19.55;31.42;102233.38;5094195;28;20039;-65
2022/04/03 09:12:20;;;;;;;1.30;1.20;;;;;;;19.53;31.13;102245.72;5076043;28;20050;-65
2022/04/03 09:14:51;;;;;;;2.80;1.30;;;;;;;19.49;31.30;102242.63;5093464;28;20049;-65
2022/04/03 09:17:44;;;;;;;2.10;1.15;;;;;;;19.52;31.65;102242.13;5075869;28;20027;-65
2022/04/03 09:20:16;;;;;;;1.77;1.30;;;;;;;19.46;31.67;102230.19;5093301;28;20357;-65
2022/04/03 09:22:44;;;;;;;2.25;1.20;;;;;;;19.47;31.77;102239.25;5093876;28;20043;-65
2022/04/03 09:25:12;;;;;;;1.30;1.10;;;;;;;19.45;31.60;102228.50;5093613;28;20032;-65
2022/04/03 09:27:49;;;;;;;2.03;1.30;;;;;;;19.46;31.52;102221.09;5093810;28;20055;-65
2022/04/03 09:30:15;;;;;;;2.83;1.27;;;;;;;19.41;31.53;102219.06;5075720;28;20040;-65
2022/04/03 09:32:52;;;;;;;2.10;1.30;;;;;;;19.44;31.78;102226.84;5093676;28;20118;-66
2022/04/03 09:37:06;;;;;;;2.13;1.88;;;;;;;16.73;27.40;102223.69;5080975;27;2028106;-89
2022/04/03 09:39:32;;;;;;;2.58;1.60;;;;;;;14.04;29.36;102223.44;5131890;28;20132;-89
2022/04/03 09:42:05;;;;;;;1.58;1.48;;;;;;;12.23;32.26;102237.63;5113937;28;20030;-89
2022/04/03 09:44:40;;;;;;;2.65;1.77;;;;;;;10.57;35.29;102242.31;5132293;28;20049;-89
2022/04/03 09:47:22;;;;;;;2.40;1.45;;;;;;;9.58;37.34;102247.38;5113162;28;20031;-89
2022/04/03 09:50:08;;;;;;;1.88;1.35;;;;;;;8.55;37.13;102240.78;5113377;28;20106;-89
2022/04/03 09:52:51;;;;;;;1.70;1.13;;;;;;;8.13;38.34;102244.38;5131729;28;20059;-89
2022/04/03 09:55:24;;;;;;;3.22;1.20;;;;;;;8.17;38.80;102245.75;5113271;28;20027;-89
2022/04/03 09:58:05;;;;;;;1.70;1.48;;;;;;;8.18;38.32;102217.66;5131704;28;20464;-89
2022/04/03 10:00:37;;;;;;;1.95;1.23;;;;;;;8.33;38.93;102226.00;5114049;28;20084;-88
2022/04/03 10:03:11;;;;;;;1.60;1.13;;;;;;;8.50;39.33;102216.91;5131611;28;20027;-88
2022/04/03 10:05:40;;;;;;;3.53;1.67;;;;;;;8.65;39.99;102210.81;5112702;28;20041;-88
2022/04/03 10:08:16;;;;;;;2.33;1.52;;;;;;;8.50;39.00;102206.09;5131568;28;20473;-88
2022/04/03 10:10:47;;;;;;;2.72;1.15;;;;;;;8.10;39.34;102210.41;5113242;28;20024;-88
2022/04/03 10:13:18;;;;;;;1.67;1.50;;;;;;;7.87;39.75;102223.69;5112873;28;20084;-89
2022/04/03 10:15:51;;;;;;;1.42;1.30;;;;;;;7.94;39.00;102210.38;5113014;28;20023;-89
2022/04/03 10:18:22;;;;;;;1.55;1.40;;;;;;;7.94;39.73;102210.38;5112986;28;20066;-89
2022/04/03 10:20:50;;;;;;;2.08;1.42;;;;;;;8.17;38.49;102207.88;5096507;28;20475;-88
2022/04/03 10:23:24;;;;;;;1.80;1.30;;;;;;;8.38;38.80;102205.53;5078870;28;20126;-88
2022/04/03 10:25:53;;;;;;;3.03;1.55;;;;;;;8.34;38.06;102200.63;5112727;28;20019;-88
2022/04/03 10:28:20;;;;;;;3.42;1.50;;;;;;;8.37;38.98;102195.75;5131410;28;20034;-88
2022/04/03 10:31:22;;;;;;;4.25;1.60;;;;;;;8.40;38.00;102191.84;5112479;28;20062;-88
2022/04/03 10:33:50;;;;;;;1.38;1.27;;;;;;;8.90;37.49;102201.69;5112096;28;20031;-88
2022/04/03 10:36:25;;;;;;;3.35;1.50;;;;;;;9.34;36.92;102192.28;5130145;27;20135;-88
2022/04/03 10:39:08;;;;;;;1.70;1.33;;;;;;;9.39;36.60;102184.47;5092210;28;20028;-88
2022/04/03 10:41:45;;;;;;;;;;;;;;;9.73;35.43;102205.00;5110969;28;20030;-88
2022/04/03 10:44:25;;;;;;;1.55;1.00;;;;;;;9.86;34.16;102198.16;5091642;28;19912;-88
2022/04/03 10:47:05;;;;;;;1.20;1.00;;;;;;;9.99;34.66;102196.56;5069723;28;20148;-88
2022/04/03 11:00:11;;;;;;;2.53;1.50;;;;;;;10.35;35.29;102174.31;5053563;28;20068;-90
2022/04/03 11:02:55;;;;;;;3.58;1.60;;;;;;;9.93;36.82;102188.28;5054039;28;20121;-90
2022/04/03 11:05:27;;;;;;;2.60;1.60;;;;;;;9.62;37.12;102179.13;5053938;28;20029;-88
2022/04/03 11:08:03;;;;;;;2.10;1.50;;;;;;;9.61;37.01;102191.00;5037309;28;20047;-88
2022/04/03 11:10:49;;;;;;;3.10;1.52;;;;;;;9.54;36.75;102191.88;5036787;28;20041;-87
2022/04/03 11:13:22;;;;;;;3.00;1.35;;;;;;;9.77;36.69;102171.09;5036089;28;20481;-89
2022/04/03 11:15:53;;;;;;;2.25;1.48;;;;;;;10.40;35.36;102179.19;5053482;28;20481;-89
2022/04/03 11:18:48;;;;;;;1.35;1.20;;;;;;;10.92;33.80;102172.09;5053129;28;20128;-89
2022/04/03 11:21:23;;;;;;;1.45;1.33;;;;;;;11.56;32.97;102173.44;5029180;28;20037;-88
2022/04/03 11:23:56;;;;;;;3.38;1.75;;;;;;;11.69;32.63;102157.28;5046616;28;20040;-89
2022/04/03 11:26:49;;;;;;;3.72;1.30;;;;;;;11.50;33.22;102161.44;5014994;28;20049;-91
2022/04/03 11:32:50;;;;;;;2.40;1.45;;;;;;;10.34;34.47;102147.34;4986950;28;20096;-90
2022/04/03 11:39:20;;;;;;;2.60;1.60;;;;;;;10.02;36.19;102149.25;4993948;28;20145;-90
2022/04/03 11:41:50;;;;;;;3.47;1.88;;;;;;;9.90;36.37;102148.81;4977542;28;20491;-88
2022/04/03 11:44:18;;;;;;;2.35;1.80;;;;;;;9.94;36.39;102158.28;4993801;28;20065;-90
2022/04/03 11:46:46;;;;;;;3.25;1.70;;;;;;;9.89;37.22;102139.03;5039151;28;20119;-90
2022/04/03 11:49:29;;;;;;;2.92;2.10;;;;;;;9.64;37.16;102141.88;5058354;28;20138;-90